Time;durP1;ratioP1;P1;durP2;ratioP2;P2;SDS_P1;SDS_P2;PMS_P1;PMS_P2;Temp;Humidity;BMP_temperature;BMP_pressure;BME280_temperature;BME280_humidity;BME280_pressure;Samples;Min_cycle;Max_cycle;Signal;HPM_P1;HPM_P2
2021/09/30 00:01:20;;;;;;;3.17;1.20;;;;;;;;;;5028714;28;20024;-86
2021/09/30 00:04:05;;;;;;;3.88;0.90;;;;;;;;;;5039423;28;20100;-86
2021/09/30 00:06:50;;;;;;;3.20;1.10;;;;;;;;;;5036888;28;20024;-86
2021/09/30 00:09:37;;;;;;;2.38;1.08;;;;;;;;;;5033762;28;20037;-85
2021/09/30 00:12:26;;;;;;;2.47;1.20;;;;;;;;;;5030927;28;20037;-84
2021/09/30 00:15:16;;;;;;;3.00;1.27;;;;;;;;;;5028396;28;20035;-85
2021/09/30 00:33:28;;;;;;;3.58;1.67;;;;;;;;;;5027323;28;20044;-84
2021/09/30 00:39:43;;;;;;;2.53;1.02;;;;;;;;;;5033758;28;20028;-83
2021/09/30 00:42:36;;;;;;;3.70;1.30;;;;;;;;;;5032896;28;20032;-83
2021/09/30 00:45:28;;;;;;;3.70;1.30;;;;;;;;;;5031409;28;20108;-83
2021/09/30 00:48:46;;;;;;;3.90;1.13;;;;;;;;;;5031464;28;20025;-84
2021/09/30 00:51:26;;;;;;;7.43;1.65;;;;;;;;;;5054840;28;20074;-84
2021/09/30 00:54:32;;;;;;;3.30;1.25;;;;;;;;;;5031638;28;20112;-83
2021/09/30 02:29:27;;;;;;;3.08;1.35;;;;;;;;;;5058422;28;20056;-85
2021/09/30 03:00:14;;;;;;;3.30;1.20;;;;;;;;;;5062976;28;20106;-85
2021/09/30 03:03:00;;;;;;;2.92;1.33;;;;;;;;;;5034331;28;20039;-85
2021/09/30 03:05:49;;;;;;;1.45;1.10;;;;;;;;;;5060531;28;20029;-85
2021/09/30 03:08:45;;;;;;;1.80;1.17;;;;;;;;;;5045393;28;20068;-85
2021/09/30 03:11:35;;;;;;;5.45;2.03;;;;;;;;;;5047627;28;20028;-84
2021/09/30 03:14:21;;;;;;;3.53;1.33;;;;;;;;;;5034148;28;20067;-84
2021/09/30 03:17:07;;;;;;;3.33;1.40;;;;;;;;;;5034865;28;20060;-84
2021/09/30 03:19:59;;;;;;;3.42;1.30;;;;;;;;;;5033558;28;20033;-84
2021/09/30 03:22:45;;;;;;;4.20;1.58;;;;;;;;;;5033860;28;20020;-84
2021/09/30 03:25:30;;;;;;;6.18;1.15;;;;;;;;;;5033055;28;20108;-84
2021/09/30 03:28:17;;;;;;;4.90;1.48;;;;;;;;;;5020039;28;20065;-85
2021/09/30 03:31:05;;;;;;;3.78;1.27;;;;;;;;;;5005148;28;20065;-84
2021/09/30 03:33:51;;;;;;;3.75;1.50;;;;;;;;;;5022877;28;20025;-85
2021/09/30 03:36:36;;;;;;;3.20;1.42;;;;;;;;;;5002062;28;20061;-84
2021/09/30 03:39:25;;;;;;;4.43;1.42;;;;;;;;;;5011807;28;20025;-84
2021/09/30 03:42:10;;;;;;;3.10;1.20;;;;;;;;;;5036133;28;20068;-84
2021/09/30 03:44:55;;;;;;;2.65;1.10;;;;;;;;;;5011171;28;20022;-85
2021/09/30 03:47:41;;;;;;;2.72;1.17;;;;;;;;;;5008366;28;20369;-85
2021/09/30 03:50:30;;;;;;;2.33;1.20;;;;;;;;;;5007315;28;20022;-84
2021/09/30 03:53:25;;;;;;;4.47;1.48;;;;;;;;;;5014639;28;20041;-85
2021/09/30 03:59:19;;;;;;;2.53;1.25;;;;;;;;;;5015303;28;20064;-85
2021/09/30 04:02:05;;;;;;;3.83;1.58;;;;;;;;;;5005680;28;20307;-85
2021/09/30 04:04:50;;;;;;;3.10;1.70;;;;;;;;;;5020201;28;20021;-84
2021/09/30 04:07:35;;;;;;;3.00;1.25;;;;;;;;;;5008361;28;20048;-84
2021/09/30 04:10:20;;;;;;;5.53;1.77;;;;;;;;;;5009535;28;20025;-84
2021/09/30 04:13:06;;;;;;;3.38;1.45;;;;;;;;;;4993093;28;20057;-84
2021/09/30 04:15:51;;;;;;;4.00;1.33;;;;;;;;;;5016474;28;20064;-84
2021/09/30 04:18:36;;;;;;;3.88;1.30;;;;;;;;;;5004282;28;20014;-83
2021/09/30 04:21:22;;;;;;;4.05;1.38;;;;;;;;;;5014513;28;20496;-84
2021/09/30 04:24:07;;;;;;;2.67;1.30;;;;;;;;;;5009323;28;20065;-85
2021/09/30 04:26:55;;;;;;;2.95;1.50;;;;;;;;;;5000870;28;20113;-85
2021/09/30 04:29:40;;;;;;;2.83;1.73;;;;;;;;;;5027517;28;20236;-86
2021/09/30 04:32:25;;;;;;;2.78;1.30;;;;;;;;;;5026714;28;20120;-85
2021/09/30 04:35:11;;;;;;;3.22;1.50;;;;;;;;;;5027689;28;20044;-85
2021/09/30 04:37:56;;;;;;;2.85;1.58;;;;;;;;;;5020491;28;20025;-85
2021/09/30 04:40:41;;;;;;;6.32;1.80;;;;;;;;;;5027321;28;20544;-86
2021/09/30 04:43:26;;;;;;;6.82;1.90;;;;;;;;;;5025303;28;20648;-85
2021/09/30 04:46:12;;;;;;;4.07;1.77;;;;;;;;;;5028028;28;20071;-85
2021/09/30 04:48:58;;;;;;;3.38;1.35;;;;;;;;;;5026305;28;20068;-85
2021/09/30 04:51:43;;;;;;;2.80;1.50;;;;;;;;;;5026599;28;20028;-84
2021/09/30 04:54:28;;;;;;;4.70;1.63;;;;;;;;;;5053836;28;20032;-84
2021/09/30 04:57:14;;;;;;;1.95;1.48;;;;;;;;;;5026719;28;20025;-85
2021/09/30 04:59:59;;;;;;;4.32;1.83;;;;;;;;;;5027090;28;20029;-84
2021/09/30 05:02:47;;;;;;;4.57;1.52;;;;;;;;;;5026027;28;20037;-84
2021/09/30 05:05:32;;;;;;;3.83;1.70;;;;;;;;;;5026878;28;20021;-85
2021/09/30 05:08:17;;;;;;;1.77;1.23;;;;;;;;;;5025395;28;20039;-85
2021/09/30 05:11:03;;;;;;;2.47;1.50;;;;;;;;;;5054841;28;20032;-85
2021/09/30 05:13:53;;;;;;;4.90;1.67;;;;;;;;;;5020833;28;20026;-85
2021/09/30 05:16:38;;;;;;;3.80;1.75;;;;;;;;;;5024078;28;20021;-85
2021/09/30 05:19:23;;;;;;;4.00;1.40;;;;;;;;;;5025086;28;20033;-86
2021/09/30 05:22:09;;;;;;;5.47;1.70;;;;;;;;;;5025898;28;20033;-86
2021/09/30 05:24:54;;;;;;;4.35;1.80;;;;;;;;;;5054388;28;20447;-87
2021/09/30 05:27:39;;;;;;;3.95;1.50;;;;;;;;;;5031708;28;20069;-86
2021/09/30 05:30:25;;;;;;;3.38;1.30;;;;;;;;;;5028934;28;20104;-86
2021/09/30 05:33:10;;;;;;;2.72;1.42;;;;;;;;;;5031865;28;20368;-84
2021/09/30 05:35:56;;;;;;;3.88;1.90;;;;;;;;;;5032060;28;20075;-84
2021/09/30 05:38:41;;;;;;;2.80;1.50;;;;;;;;;;5031571;28;20028;-82
2021/09/30 05:41:27;;;;;;;5.00;1.77;;;;;;;;;;5032347;28;20028;-86
2021/09/30 05:44:14;;;;;;;3.28;1.88;;;;;;;;;;5031529;28;20108;-84
2021/09/30 05:46:59;;;;;;;4.93;1.80;;;;;;;;;;5033649;28;20037;-84
2021/09/30 05:49:44;;;;;;;5.38;1.60;;;;;;;;;;5035544;28;20115;-85
2021/09/30 05:52:29;;;;;;;4.70;1.63;;;;;;;;;;5038555;28;20031;-84
2021/09/30 05:55:15;;;;;;;7.22;2.00;;;;;;;;;;5033351;28;20621;-83
2021/09/30 05:58:00;;;;;;;5.13;1.60;;;;;;;;;;5034744;28;20115;-82
2021/09/30 06:13:03;;;;;;;11.32;6.40;;;;;;;;;;4971001;28;20039;-84
2021/09/30 06:15:51;;;;;;;4.63;2.22;;;;;;;;;;4951419;28;20023;-85
2021/09/30 06:18:39;;;;;;;5.13;1.60;;;;;;;;;;5036965;28;20021;-86
2021/09/30 06:21:25;;;;;;;6.38;2.05;;;;;;;;;;5034930;28;20060;-83
2021/09/30 06:24:10;;;;;;;3.50;1.80;;;;;;;;;;5036607;28;20025;-83
2021/09/30 06:26:55;;;;;;;3.97;2.15;;;;;;;;;;5035299;28;20104;-83
2021/09/30 06:29:41;;;;;;;3.15;1.75;;;;;;;;;;5036117;28;20041;-85
2021/09/30 06:32:26;;;;;;;4.40;2.63;;;;;;;;;;5036105;28;20113;-84
2021/09/30 06:35:11;;;;;;;8.93;2.50;;;;;;;;;;5034859;28;20395;-84
2021/09/30 06:37:57;;;;;;;5.15;2.00;;;;;;;;;;5034831;28;20035;-85
2021/09/30 06:40:42;;;;;;;6.22;1.80;;;;;;;;;;5035504;28;20028;-78
2021/09/30 06:43:31;;;;;;;3.50;1.77;;;;;;;;;;5033372;28;20391;-81
2021/09/30 06:46:16;;;;;;;5.90;2.05;;;;;;;;;;5035511;28;20013;-81
2021/09/30 06:49:01;;;;;;;6.63;1.88;;;;;;;;;;5034832;28;20376;-81
2021/09/30 06:51:49;;;;;;;6.00;1.80;;;;;;;;;;5046742;28;20017;-81
2021/09/30 06:54:34;;;;;;;6.68;1.95;;;;;;;;;;5036489;28;20094;-89
2021/09/30 06:57:21;;;;;;;5.38;1.80;;;;;;;;;;5035001;28;20087;-87
2021/09/30 07:00:12;;;;;;;4.75;1.83;;;;;;;;;;5034195;28;20017;-89
2021/09/30 07:02:57;;;;;;;4.32;1.67;;;;;;;;;;5031690;28;20376;-88
2021/09/30 07:05:43;;;;;;;4.57;1.60;;;;;;;;;;5038805;28;20055;-91
2021/09/30 07:08:29;;;;;;;3.63;1.67;;;;;;;;;;5035021;28;20048;-93
2021/09/30 07:11:17;;;;;;;6.20;1.60;;;;;;;;;;5023089;28;20075;-90
2021/09/30 07:14:02;;;;;;;5.20;1.30;;;;;;;;;;5035732;28;20025;-92
2021/09/30 07:16:48;;;;;;;6.07;1.85;;;;;;;;;;5048848;28;20017;-90
2021/09/30 07:19:35;;;;;;;3.25;1.35;;;;;;;;;;5043479;28;20021;-92
2021/09/30 07:22:21;;;;;;;5.03;1.85;;;;;;;;;;5037214;28;20029;-90
2021/09/30 07:25:10;;;;;;;78.60;58.13;;;;;;;;;;5035911;28;20479;-92
2021/09/30 07:27:55;;;;;;;9.07;3.70;;;;;;;;;;5035326;28;20048;-87
2021/09/30 07:30:40;;;;;;;3.90;1.45;;;;;;;;;;5033756;28;20483;-84
2021/09/30 07:33:26;;;;;;;4.55;1.83;;;;;;;;;;5030798;28;20033;-84
2021/09/30 07:36:13;;;;;;;6.20;2.75;;;;;;;;;;5035168;28;20036;-85
2021/09/30 07:38:58;;;;;;;5.72;1.90;;;;;;;;;;5033735;28;20766;-86
2021/09/30 07:41:45;;;;;;;3.63;1.70;;;;;;;;;;5029230;28;20033;-89
2021/09/30 07:44:33;;;;;;;3.75;1.73;;;;;;;;;;5034145;28;20078;-90
2021/09/30 07:47:18;;;;;;;8.00;1.88;;;;;;;;;;5036556;28;20111;-89
2021/09/30 07:50:07;;;;;;;4.03;1.50;;;;;;;;;;5031643;28;20020;-92
2021/09/30 07:52:52;;;;;;;9.38;2.25;;;;;;;;;;5060012;28;20509;-90
2021/09/30 07:55:37;;;;;;;8.18;1.83;;;;;;;;;;5037396;28;20021;-87
2021/09/30 07:58:24;;;;;;;6.43;1.42;;;;;;;;;;5036580;28;20021;-88
2021/09/30 08:01:12;;;;;;;4.97;1.65;;;;;;;;;;5067562;28;20088;-91
2021/09/30 08:03:59;;;;;;;6.57;1.42;;;;;;;;;;5037743;28;20021;-91
2021/09/30 08:06:45;;;;;;;11.00;6.72;;;;;;;;;;5034321;28;20037;-85
2021/09/30 08:09:30;;;;;;;58.33;42.67;;;;;;;;;;5033358;28;20443;-84
2021/09/30 08:12:16;;;;;;;5.18;1.90;;;;;;;;;;5045970;28;20025;-83
2021/09/30 08:15:01;;;;;;;5.82;1.75;;;;;;;;;;5016534;28;20021;-85
2021/09/30 08:17:46;;;;;;;2.15;1.17;;;;;;;;;;5032426;28;20498;-85
2021/09/30 08:20:32;;;;;;;8.57;2.00;;;;;;;;;;5038850;28;20020;-84
2021/09/30 08:23:18;;;;;;;4.75;2.00;;;;;;;;;;5036276;28;20052;-84
2021/09/30 08:26:03;;;;;;;5.95;1.50;;;;;;;;;;5031576;28;20074;-84
2021/09/30 08:28:51;;;;;;;3.22;1.30;;;;;;;;;;5028038;28;20095;-85
2021/09/30 08:31:36;;;;;;;7.05;1.30;;;;;;;;;;5032176;28;20134;-84
2021/09/30 08:34:21;;;;;;;4.40;1.50;;;;;;;;;;5033169;28;20515;-87
2021/09/30 08:37:07;;;;;;;4.25;2.10;;;;;;;;;;5032182;28;20024;-84
2021/09/30 08:39:55;;;;;;;5.63;1.88;;;;;;;;;;5038330;28;20017;-92
2021/09/30 08:42:49;;;;;;;4.20;1.88;;;;;;;;;;5032258;28;20033;-92
2021/09/30 08:45:35;;;;;;;4.75;1.60;;;;;;;;;;5038387;28;20123;-92
2021/09/30 08:48:22;;;;;;;5.15;1.88;;;;;;;;;;5037544;28;20036;-94
2021/09/30 08:51:09;;;;;;;8.57;3.50;;;;;;;;;;5042050;28;20017;-96
2021/09/30 08:53:54;;;;;;;6.30;2.78;;;;;;;;;;5049085;28;20029;-93
2021/09/30 08:56:40;;;;;;;5.18;1.60;;;;;;;;;;5049761;28;20127;-94
2021/09/30 08:59:26;;;;;;;4.78;1.58;;;;;;;;;;5046264;28;20013;-93
2021/09/30 09:02:14;;;;;;;4.10;1.45;;;;;;;;;;5039712;28;20119;-95
2021/09/30 09:04:59;;;;;;;4.13;1.35;;;;;;;;;;5034273;28;20029;-88
2021/09/30 09:08:01;;;;;;;3.65;1.10;;;;;;;;;;5033071;28;20100;-92
2021/09/30 09:10:49;;;;;;;5.10;1.52;;;;;;;;;;5048433;28;20029;-92
2021/09/30 09:13:35;;;;;;;5.00;1.60;;;;;;;;;;5036316;28;20079;-90
2021/09/30 09:16:24;;;;;;;3.17;1.40;;;;;;;;;;5036057;28;20020;-88
2021/09/30 09:19:09;;;;;;;6.47;1.50;;;;;;;;;;5030950;28;20029;-91
2021/09/30 09:21:55;;;;;;;4.15;1.55;;;;;;;;;;5035490;28;20029;-86
2021/09/30 09:24:59;;;;;;;3.88;1.20;;;;;;;;;;5038097;28;20387;-88
2021/09/30 09:27:46;;;;;;;3.95;1.38;;;;;;;;;;5068120;28;20145;-90
2021/09/30 09:30:43;;;;;;;5.65;1.77;;;;;;;;;;5039391;28;20491;-91
2021/09/30 09:33:35;;;;;;;4.70;1.38;;;;;;;;;;5037375;28;20039;-87
2021/09/30 09:36:25;;;;;;;6.97;2.20;;;;;;;;;;5037527;28;20104;-89
2021/09/30 09:39:20;;;;;;;4.93;1.88;;;;;;;;;;5037736;28;20419;-92
2021/09/30 09:42:08;;;;;;;2.60;1.20;;;;;;;;;;5037219;28;20104;-84
2021/09/30 09:44:54;;;;;;;4.80;1.98;;;;;;;;;;5036843;28;20028;-90
2021/09/30 09:47:41;;;;;;;3.53;1.45;;;;;;;;;;5035743;28;20360;-91
2021/09/30 09:50:30;;;;;;;3.65;1.58;;;;;;;;;;5035588;28;20021;-86
2021/09/30 09:53:16;;;;;;;5.28;1.83;;;;;;;;;;5063503;28;20035;-85
2021/09/30 09:56:12;;;;;;;2.13;1.10;;;;;;;;;;5031751;28;20025;-86
2021/09/30 09:58:57;;;;;;;3.60;1.55;;;;;;;;;;5034397;28;20028;-87
2021/09/30 10:01:44;;;;;;;4.68;1.33;;;;;;;;;;5037227;28;20039;-89
2021/09/30 10:04:29;;;;;;;5.47;1.40;;;;;;;;;;5034664;28;20379;-86
2021/09/30 10:07:17;;;;;;;4.22;1.70;;;;;;;;;;5036908;28;20519;-87
2021/09/30 10:10:02;;;;;;;6.68;4.50;;;;;;;;;;5059592;28;20060;-87
2021/09/30 10:12:51;;;;;;;18.40;12.65;;;;;;;;;;5036791;28;20029;-87
2021/09/30 10:15:37;;;;;;;4.97;2.53;;;;;;;;;;5033967;28;20087;-88
2021/09/30 10:18:23;;;;;;;2.92;1.10;;;;;;;;;;5060943;28;20263;-91
2021/09/30 10:21:08;;;;;;;3.03;1.45;;;;;;;;;;5033014;28;20025;-89
2021/09/30 10:23:57;;;;;;;4.75;2.00;;;;;;;;;;5048734;28;20434;-89
2021/09/30 10:26:45;;;;;;;6.82;1.63;;;;;;;;;;5070858;28;20033;-91
2021/09/30 10:29:45;;;;;;;3.30;1.55;;;;;;;;;;5035136;28;20036;-86
2021/09/30 10:32:48;;;;;;;3.03;1.05;;;;;;;;;;5035815;28;20400;-84
2021/09/30 10:35:34;;;;;;;1.85;0.98;;;;;;;;;;5030907;28;20056;-90
2021/09/30 10:38:24;;;;;;;2.65;1.25;;;;;;;;;;5035197;28;20032;-83
2021/09/30 10:41:12;;;;;;;1.27;1.00;;;;;;;;;;5033961;28;20028;-86
2021/09/30 10:44:10;;;;;;;4.95;1.30;;;;;;;;;;5035262;28;20459;-86
2021/09/30 10:46:59;;;;;;;6.50;1.80;;;;;;;;;;5037930;28;20025;-92
2021/09/30 10:49:52;;;;;;;3.67;1.52;;;;;;;;;;5065427;28;20094;-90
2021/09/30 10:52:48;;;;;;;4.50;1.50;;;;;;;;;;5016998;28;20032;-86
2021/09/30 10:55:33;;;;;;;2.83;1.50;;;;;;;;;;5054581;28;20103;-84
2021/09/30 10:58:20;;;;;;;14.10;9.23;;;;;;;;;;5028441;28;20028;-86
2021/09/30 11:01:12;;;;;;;35.53;29.40;;;;;;;;;;5031613;28;20481;-85
2021/09/30 11:03:58;;;;;;;4.05;2.10;;;;;;;;;;5034543;28;20120;-85
2021/09/30 11:07:02;;;;;;;4.38;1.80;;;;;;;;;;5051200;28;20029;-91
2021/09/30 11:10:07;;;;;;;4.97;1.58;;;;;;;;;;5034140;28;20047;-89
2021/09/30 11:13:14;;;;;;;2.88;1.70;;;;;;;;;;5034873;28;20070;-91
2021/09/30 11:16:06;;;;;;;3.00;1.50;;;;;;;;;;5036455;28;20017;-89
2021/09/30 11:18:52;;;;;;;2.42;1.40;;;;;;;;;;5035742;28;20047;-91
2021/09/30 11:21:38;;;;;;;5.25;1.30;;;;;;;;;;5033624;28;20037;-88
2021/09/30 11:24:26;;;;;;;1.88;1.20;;;;;;;;;;5036619;28;20029;-89
2021/09/30 11:27:11;;;;;;;4.28;1.48;;;;;;;;;;5037943;28;20125;-88
2021/09/30 11:30:26;;;;;;;2.65;1.20;;;;;;;;;;5028223;28;20071;-81
2021/09/30 11:33:12;;;;;;;2.63;1.40;;;;;;;;;;5032826;28;20033;-83
2021/09/30 11:36:00;;;;;;;2.70;1.25;;;;;;;;;;5031600;28;20072;-80
2021/09/30 11:38:46;;;;;;;3.05;0.90;;;;;;;;;;5033985;28;20021;-83
2021/09/30 11:41:32;;;;;;;4.15;1.10;;;;;;;;;;5030954;28;20039;-86
2021/09/30 11:44:19;;;;;;;4.40;1.20;;;;;;;;;;5032034;28;20029;-82
2021/09/30 11:47:04;;;;;;;2.63;1.20;;;;;;;;;;5033431;28;20078;-85
2021/09/30 11:49:49;;;;;;;3.05;1.30;;;;;;;;;;5032018;28;20071;-84
2021/09/30 11:52:34;;;;;;;1.92;1.30;;;;;;;;;;5035152;28;20067;-85
2021/09/30 11:55:20;;;;;;;4.07;1.48;;;;;;;;;;5030706;28;20035;-82
2021/09/30 11:58:05;;;;;;;3.15;1.23;;;;;;;;;;5061866;28;20487;-86
2021/09/30 12:00:50;;;;;;;4.80;1.42;;;;;;;;;;5028993;28;20075;-86
2021/09/30 12:03:43;;;;;;;4.78;1.30;;;;;;;;;;5035448;28;20103;-86
2021/09/30 12:06:41;;;;;;;1.55;1.08;;;;;;;;;;5033614;28;20024;-86
2021/09/30 12:09:33;;;;;;;3.53;1.40;;;;;;;;;;5030369;28;20275;-85
2021/09/30 12:12:26;;;;;;;3.45;1.45;;;;;;;;;;5030537;28;20021;-84
2021/09/30 12:15:12;;;;;;;1.85;0.80;;;;;;;;;;5031563;28;20066;-82
2021/09/30 12:17:57;;;;;;;3.45;0.93;;;;;;;;;;5029889;28;20063;-85
2021/09/30 12:20:46;;;;;;;3.63;1.00;;;;;;;;;;5031250;28;20025;-86
2021/09/30 12:23:31;;;;;;;;;;;;;;;;;;5036919;28;20021;-85
2021/09/30 12:26:17;;;;;;;4.15;1.25;;;;;;;;;;5028726;28;20004;-84
2021/09/30 12:29:02;;;;;;;2.33;1.20;;;;;;;;;;5039588;28;20102;-91
2021/09/30 12:32:04;;;;;;;4.35;1.52;;;;;;;;;;5032503;28;20051;-91
2021/09/30 12:34:53;;;;;;;1.80;1.15;;;;;;;;;;5039165;28;20017;-87
2021/09/30 12:37:40;;;;;;;9.57;1.65;;;;;;;;;;5034370;28;20036;-90
2021/09/30 12:40:27;;;;;;;3.55;1.17;;;;;;;;;;5033314;28;20052;-83
2021/09/30 12:43:17;;;;;;;3.03;1.13;;;;;;;;;;5035514;28;20071;-85
2021/09/30 12:46:07;;;;;;;1.63;0.90;;;;;;;;;;5034060;28;20057;-91
2021/09/30 12:49:05;;;;;;;2.80;0.93;;;;;;;;;;5034243;28;20590;-91
2021/09/30 12:51:53;;;;;;;2.20;1.00;;;;;;;;;;5052209;28;20038;-92
2021/09/30 12:54:40;;;;;;;2.58;0.90;;;;;;;;;;5038281;28;20043;-95
2021/09/30 12:57:32;;;;;;;2.95;1.13;;;;;;;;;;5037597;28;20043;-94
2021/09/30 13:00:19;;;;;;;6.10;1.45;;;;;;;;;;5041632;28;20024;-95
2021/09/30 13:03:13;;;;;;;1.98;1.25;;;;;;;;;;5025756;28;20033;-93
2021/09/30 13:06:01;;;;;;;4.47;1.23;;;;;;;;;;5037851;28;21362;-95
2021/09/30 13:08:47;;;;;;;1.33;0.80;;;;;;;;;;5037259;28;20549;-92
2021/09/30 13:11:33;;;;;;;22.38;15.25;;;;;;;;;;5050800;28;20044;-94
2021/09/30 13:14:29;;;;;;;3.72;2.33;;;;;;;;;;5034504;28;20106;-90
2021/09/30 13:17:17;;;;;;;4.95;2.00;;;;;;;;;;5030227;28;20021;-91
2021/09/30 13:20:11;;;;;;;2.42;1.20;;;;;;;;;;5038599;28;20555;-87
2021/09/30 13:22:56;;;;;;;5.38;2.25;;;;;;;;;;5029446;28;20379;-88
2021/09/30 13:25:42;;;;;;;2.92;0.98;;;;;;;;;;5018785;28;20064;-88
2021/09/30 13:28:29;;;;;;;1.98;1.10;;;;;;;;;;5012806;28;20117;-88
2021/09/30 13:31:14;;;;;;;3.33;0.95;;;;;;;;;;5008055;28;20026;-86
2021/09/30 13:34:00;;;;;;;2.17;0.88;;;;;;;;;;5007762;28;20034;-89
2021/09/30 13:36:46;;;;;;;2.47;0.93;;;;;;;;;;5006364;28;20380;-89
2021/09/30 13:39:34;;;;;;;4.97;1.40;;;;;;;;;;5004490;28;20022;-90
2021/09/30 13:42:22;;;;;;;2.28;1.05;;;;;;;;;;5008944;28;20132;-88
2021/09/30 13:45:09;;;;;;;4.22;1.15;;;;;;;;;;5006394;28;20068;-86
2021/09/30 13:47:57;;;;;;;2.05;1.00;;;;;;;;;;5004128;28;20117;-89
2021/09/30 13:50:42;;;;;;;3.47;1.38;;;;;;;;;;5002733;28;20052;-88
2021/09/30 13:53:28;;;;;;;2.85;1.20;;;;;;;;;;5004666;28;20033;-87
2021/09/30 13:56:13;;;;;;;2.33;1.00;;;;;;;;;;5009180;28;20025;-86
2021/09/30 13:58:58;;;;;;;2.90;1.10;;;;;;;;;;5005111;28;20018;-86
2021/09/30 14:01:46;;;;;;;3.90;1.20;;;;;;;;;;5005974;28;20060;-84
2021/09/30 14:04:32;;;;;;;3.60;1.20;;;;;;;;;;5002174;28;20120;-85
2021/09/30 14:07:20;;;;;;;29.40;24.15;;;;;;;;;;5005011;28;20018;-92
2021/09/30 14:10:07;;;;;;;5.82;2.03;;;;;;;;;;5013794;28;20369;-88
2021/09/30 14:12:54;;;;;;;7.88;3.80;;;;;;;;;;5011750;28;20028;-85
2021/09/30 14:15:40;;;;;;;3.95;1.23;;;;;;;;;;5009221;28;20021;-87
2021/09/30 14:18:29;;;;;;;3.50;1.30;;;;;;;;;;5022221;28;20030;-87
2021/09/30 14:21:15;;;;;;;4.30;1.20;;;;;;;;;;5008821;28;20017;-87
2021/09/30 14:24:00;;;;;;;3.58;1.20;;;;;;;;;;5012919;28;20541;-91
2021/09/30 14:26:46;;;;;;;2.95;1.00;;;;;;;;;;5013371;28;20034;-90
2021/09/30 14:29:32;;;;;;;2.33;1.15;;;;;;;;;;5011316;28;20170;-89
2021/09/30 14:32:18;;;;;;;5.43;1.20;;;;;;;;;;5011105;28;20034;-88
2021/09/30 14:35:17;;;;;;;4.95;1.30;;;;;;;;;;5005476;28;20089;-88
2021/09/30 14:38:03;;;;;;;4.68;1.10;;;;;;;;;;5013758;28;20092;-90
2021/09/30 14:40:50;;;;;;;4.53;1.23;;;;;;;;;;5006581;28;20150;-86
2021/09/30 14:43:41;;;;;;;2.78;0.90;;;;;;;;;;5004540;28;20026;-88
2021/09/30 14:46:26;;;;;;;4.53;1.35;;;;;;;;;;5009821;28;20076;-90
2021/09/30 14:49:11;;;;;;;2.33;1.00;;;;;;;;;;5012004;28;20110;-85
2021/09/30 14:51:57;;;;;;;4.53;1.00;;;;;;;;;;5005524;28;20026;-85
2021/09/30 14:54:45;;;;;;;3.75;1.35;;;;;;;;;;5005732;28;20037;-85
2021/09/30 14:57:30;;;;;;;1.65;0.98;;;;;;;;;;5010984;28;20045;-87
2021/09/30 15:00:16;;;;;;;2.80;1.13;;;;;;;;;;5010890;28;20592;-88
2021/09/30 15:03:17;;;;;;;4.60;1.48;;;;;;;;;;5005190;28;20054;-86
2021/09/30 15:06:41;;;;;;;2.90;1.52;;;;;;;;;;5010495;28;20026;-88
2021/09/30 15:09:29;;;;;;;3.00;1.13;;;;;;;;;;5013811;28;20033;-88
2021/09/30 15:12:15;;;;;;;3.58;1.10;;;;;;;;;;5018724;28;20022;-87
2021/09/30 15:15:00;;;;;;;5.38;2.45;;;;;;;;;;5023594;28;20029;-86
2021/09/30 15:18:07;;;;;;;5.45;2.75;;;;;;;;;;5021307;28;20025;-87
2021/09/30 15:24:05;;;;;;;2.85;1.02;;;;;;;;;;5007601;28;20117;-88
2021/09/30 15:26:51;;;;;;;2.00;1.10;;;;;;;;;;5010648;28;20034;-85
2021/09/30 15:29:37;;;;;;;3.75;1.05;;;;;;;;;;5004393;28;20044;-84
2021/09/30 15:32:22;;;;;;;5.93;1.27;;;;;;;;;;5028584;28;20029;-85
2021/09/30 15:35:07;;;;;;;3.28;1.08;;;;;;;;;;5029576;28;20472;-85
2021/09/30 15:37:53;;;;;;;3.92;1.20;;;;;;;;;;5028226;28;20100;-87
2021/09/30 15:40:39;;;;;;;4.05;1.08;;;;;;;;;;5029609;28;20022;-85
2021/09/30 15:43:24;;;;;;;3.72;1.20;;;;;;;;;;5024584;28;20017;-85
2021/09/30 15:46:10;;;;;;;4.65;1.10;;;;;;;;;;5025758;28;20027;-88
2021/09/30 15:48:55;;;;;;;4.03;1.50;;;;;;;;;;5027639;28;20147;-85
2021/09/30 15:51:41;;;;;;;4.03;1.10;;;;;;;;;;5027976;28;20022;-86
2021/09/30 15:54:26;;;;;;;5.20;1.60;;;;;;;;;;5025233;28;20086;-87
2021/09/30 15:57:12;;;;;;;3.10;1.30;;;;;;;;;;5029243;28;20104;-85
2021/09/30 15:59:57;;;;;;;3.25;1.00;;;;;;;;;;5027070;28;20029;-85
2021/09/30 16:02:44;;;;;;;5.32;1.23;;;;;;;;;;5026492;28;20026;-86
2021/09/30 16:05:29;;;;;;;4.55;1.75;;;;;;;;;;5026724;28;20037;-85
2021/09/30 16:08:14;;;;;;;28.00;19.33;;;;;;;;;;5028045;28;20068;-85
2021/09/30 16:11:00;;;;;;;11.95;6.32;;;;;;;;;;5014521;28;20025;-86
2021/09/30 16:13:45;;;;;;;5.30;1.67;;;;;;;;;;5026344;28;20028;-86
2021/09/30 16:16:40;;;;;;;2.92;1.40;;;;;;;;;;5028068;28;20029;-83
2021/09/30 16:19:31;;;;;;;2.28;1.30;;;;;;;;;;5011350;28;20029;-89
2021/09/30 16:22:20;;;;;;;3.15;1.35;;;;;;;;;;5022194;28;20508;-88
2021/09/30 16:25:06;;;;;;;4.93;1.92;;;;;;;;;;5037716;28;20023;-89
2021/09/30 16:28:00;;;;;;;6.07;1.90;;;;;;;;;;5027908;28;20050;-91
2021/09/30 16:30:48;;;;;;;1.95;1.17;;;;;;;;;;5021646;28;20113;-88
2021/09/30 16:33:36;;;;;;;6.70;1.80;;;;;;;;;;5006929;28;20100;-88
2021/09/30 16:36:24;;;;;;;5.22;1.70;;;;;;;;;;4997010;28;20527;-89
2021/09/30 16:39:09;;;;;;;4.72;1.60;;;;;;;;;;5021685;28;20063;-89
2021/09/30 16:41:55;;;;;;;14.15;7.97;;;;;;;;;;5001426;28;20117;-89
2021/09/30 16:48:10;;;;;;;5.38;1.98;;;;;;;;;;5012539;28;20038;-92
2021/09/30 16:51:35;;;;;;;;;;;;;;;;;;;;;
2021/09/30 16:54:27;;;;;;;2.88;1.30;;;;;;;;;;5039376;28;20109;-91
2021/09/30 16:57:44;;;;;;;3.55;1.40;;;;;;;;;;5003810;28;20033;-92
2021/09/30 17:00:36;;;;;;;5.47;1.40;;;;;;;;;;4929233;29;20031;-92
2021/09/30 17:03:21;;;;;;;2.60;1.40;;;;;;;;;;5025634;28;20037;-90
2021/09/30 17:10:10;;;;;;;8.20;5.50;;;;;;;;;;4990439;28;20037;-91
2021/09/30 17:12:58;;;;;;;6.45;2.17;;;;;;;;;;4947952;28;20094;-89
2021/09/30 17:15:44;;;;;;;4.10;1.77;;;;;;;;;;4941947;28;20453;-90
2021/09/30 17:18:30;;;;;;;3.72;1.52;;;;;;;;;;4998312;28;20037;-90
2021/09/30 17:21:31;;;;;;;;;;;;;;;;;;;;;
2021/09/30 17:24:23;;;;;;;4.30;1.42;;;;;;;;;;5003017;28;20046;-92
2021/09/30 17:27:19;;;;;;;;;;;;;;;;;;;;;
2021/09/30 17:30:06;;;;;;;7.55;2.35;;;;;;;;;;5025275;28;20045;-89
2021/09/30 17:32:52;;;;;;;19.52;12.38;;;;;;;;;;5022528;28;20085;-89
2021/09/30 17:35:37;;;;;;;3.05;1.70;;;;;;;;;;5036922;28;20075;-93
2021/09/30 17:38:23;;;;;;;3.25;1.42;;;;;;;;;;5030047;28;20022;-87
2021/09/30 17:41:08;;;;;;;3.15;1.50;;;;;;;;;;5034247;28;20132;-88
2021/09/30 17:43:53;;;;;;;4.47;1.50;;;;;;;;;;5022034;28;20087;-86
2021/09/30 17:46:39;;;;;;;4.40;1.40;;;;;;;;;;5033702;28;20075;-86
2021/09/30 17:49:24;;;;;;;3.63;1.90;;;;;;;;;;5031738;28;20029;-88
2021/09/30 17:52:17;;;;;;;3.75;1.75;;;;;;;;;;5032851;28;20075;-88
2021/09/30 17:55:10;;;;;;;3.75;1.33;;;;;;;;;;5040787;28;20029;-89
2021/09/30 17:57:55;;;;;;;3.08;1.30;;;;;;;;;;5039035;28;20021;-88
2021/09/30 18:00:41;;;;;;;1.85;1.10;;;;;;;;;;5039360;28;20151;-88
2021/09/30 18:03:29;;;;;;;3.35;1.42;;;;;;;;;;5040051;28;20025;-87
2021/09/30 18:06:15;;;;;;;4.78;1.60;;;;;;;;;;5037274;28;20025;-88
2021/09/30 18:09:00;;;;;;;4.95;2.42;;;;;;;;;;5035102;28;20115;-87
2021/09/30 18:11:45;;;;;;;6.13;1.80;;;;;;;;;;5032521;28;20652;-90
2021/09/30 18:14:31;;;;;;;5.10;1.80;;;;;;;;;;5042001;28;20025;-87
2021/09/30 18:17:18;;;;;;;5.07;2.05;;;;;;;;;;5033359;28;20067;-90
2021/09/30 18:20:05;;;;;;;4.20;2.22;;;;;;;;;;5039265;28;20024;-90
2021/09/30 18:22:51;;;;;;;4.65;1.73;;;;;;;;;;5045066;28;20055;-91
2021/09/30 18:25:36;;;;;;;25.35;15.68;;;;;;;;;;5041774;28;20031;-88
2021/09/30 18:28:28;;;;;;;17.15;9.88;;;;;;;;;;5042263;28;20095;-88
2021/09/30 18:31:14;;;;;;;5.90;1.63;;;;;;;;;;5045183;28;20051;-88
2021/09/30 18:34:00;;;;;;;4.75;1.27;;;;;;;;;;5038446;28;20123;-89
2021/09/30 18:36:51;;;;;;;4.60;1.38;;;;;;;;;;5038609;28;20437;-88
2021/09/30 18:39:46;;;;;;;5.90;1.58;;;;;;;;;;5032716;28;20041;-88
2021/09/30 18:42:34;;;;;;;5.60;2.42;;;;;;;;;;5032045;28;20426;-90
2021/09/30 18:45:22;;;;;;;6.88;2.38;;;;;;;;;;5043188;28;20025;-89
2021/09/30 18:48:37;;;;;;;4.63;2.08;;;;;;;;;;5039314;28;20083;-89
2021/09/30 18:51:22;;;;;;;4.82;1.85;;;;;;;;;;5035440;28;20483;-89
2021/09/30 18:54:08;;;;;;;2.17;1.30;;;;;;;;;;5041990;28;20060;-88
2021/09/30 18:57:00;;;;;;;2.85;1.80;;;;;;;;;;5032450;28;20383;-91
2021/09/30 18:59:53;;;;;;;4.65;2.63;;;;;;;;;;5078239;28;20079;-91
2021/09/30 19:02:45;;;;;;;3.92;1.52;;;;;;;;;;5048937;28;20053;-91
2021/09/30 19:05:38;;;;;;;3.55;2.33;;;;;;;;;;5047150;28;20104;-91
2021/09/30 19:11:50;;;;;;;2.63;1.77;;;;;;;;;;5039100;28;20056;-90
2021/09/30 19:14:36;;;;;;;6.93;2.08;;;;;;;;;;5039434;28;20025;-90
2021/09/30 19:17:23;;;;;;;4.60;2.00;;;;;;;;;;5038555;28;20048;-90
2021/09/30 19:20:32;;;;;;;4.32;1.75;;;;;;;;;;5075858;28;20025;-91
2021/09/30 19:23:18;;;;;;;4.35;2.22;;;;;;;;;;5036091;28;20033;-89
2021/09/30 19:26:05;;;;;;;6.20;2.22;;;;;;;;;;5025040;28;20029;-88
2021/09/30 19:28:52;;;;;;;3.65;1.95;;;;;;;;;;5039112;28;20045;-90
2021/09/30 19:31:40;;;;;;;5.32;2.25;;;;;;;;;;5034482;28;20041;-90
2021/09/30 19:34:35;;;;;;;46.60;33.30;;;;;;;;;;5027160;28;20049;-90
2021/09/30 19:37:22;;;;;;;7.10;3.45;;;;;;;;;;5034609;28;20121;-89
2021/09/30 19:40:13;;;;;;;4.45;2.30;;;;;;;;;;5040567;28;20040;-90